Time;durP1;ratioP1;P1;durP2;ratioP2;P2;SDS_P1;SDS_P2;PMS_P1;PMS_P2;Temp;Humidity;BMP_temperature;BMP_pressure;BME280_temperature;BME280_humidity;BME280_pressure;Samples;Min_cycle;Max_cycle;Signal;HPM_P1;HPM_P2
2022/04/23 00:01:55;;;;;;;17.25;11.77;;;12.60;99.90;;;;;;4128675;28;20081;-63
2022/04/23 00:03:55;;;;;;;17.45;12.13;;;12.70;99.90;;;;;;4129059;28;20063;-63
2022/04/23 00:05:56;;;;;;;21.08;11.95;;;12.50;99.90;;;;;;4130503;28;20062;-64
2022/04/23 00:07:57;;;;;;;16.38;12.68;;;12.50;99.90;;;;;;4128911;28;20046;-63
2022/04/23 00:09:57;;;;;;;17.40;11.85;;;12.40;99.90;;;;;;4128881;28;20041;-63
2022/04/23 00:11:58;;;;;;;19.05;12.43;;;12.60;99.90;;;;;;4128243;28;20053;-64
2022/04/23 00:13:59;;;;;;;17.58;12.80;;;12.40;99.90;;;;;;4129556;28;20041;-65
2022/04/23 00:16:00;;;;;;;18.85;12.07;;;12.50;99.90;;;;;;4129068;28;20422;-63
2022/04/23 00:18:01;;;;;;;15.32;10.40;;;12.50;99.90;;;;;;4129985;28;20166;-63
2022/04/23 00:20:02;;;;;;;17.63;12.27;;;12.50;99.90;;;;;;4130958;28;20034;-63
2022/04/23 00:22:03;;;;;;;17.88;13.52;;;12.40;99.90;;;;;;4129517;28;20438;-63
2022/04/23 00:24:04;;;;;;;15.40;11.57;;;12.40;99.90;;;;;;4130806;28;20042;-63
2022/04/23 00:26:04;;;;;;;15.82;11.45;;;12.40;99.90;;;;;;4128777;28;20026;-63
2022/04/23 00:28:06;;;;;;;19.73;12.98;;;12.40;99.90;;;;;;4128675;28;20034;-63
2022/04/23 00:30:06;;;;;;;18.42;12.38;;;12.20;99.90;;;;;;4128938;28;20133;-63
2022/04/23 00:32:07;;;;;;;16.40;12.27;;;12.20;99.90;;;;;;4130441;28;20440;-63
2022/04/23 00:34:08;;;;;;;15.50;11.00;;;12.20;99.90;;;;;;4128176;28;20081;-63
2022/04/23 00:36:10;;;;;;;16.95;11.70;;;12.20;99.90;;;;;;4127557;28;20030;-63
2022/04/23 00:38:10;;;;;;;18.65;12.13;;;12.20;99.90;;;;;;4126254;28;20073;-63
2022/04/23 00:40:16;;;;;;;22.98;12.35;;;12.00;99.90;;;;;;4130223;28;20457;-64
2022/04/23 00:42:17;;;;;;;16.88;11.68;;;12.00;99.90;;;;;;4129175;28;20083;-63
2022/04/23 00:44:18;;;;;;;15.23;11.18;;;12.10;99.90;;;;;;4127771;28;20034;-63
2022/04/23 00:46:19;;;;;;;15.90;11.50;;;12.10;99.90;;;;;;4128615;28;20049;-63
2022/04/23 00:48:21;;;;;;;17.42;11.65;;;12.10;99.90;;;;;;4128719;28;20481;-63
2022/04/23 00:50:22;;;;;;;15.48;11.57;;;12.10;99.90;;;;;;4128023;28;20053;-63
2022/04/23 00:52:24;;;;;;;16.88;12.15;;;12.10;99.90;;;;;;4127093;28;20486;-64
2022/04/23 00:54:24;;;;;;;16.60;11.73;;;12.00;99.90;;;;;;4129723;28;20031;-63
2022/04/23 00:56:25;;;;;;;18.63;12.15;;;11.90;99.90;;;;;;4127836;28;20069;-62
2022/04/23 00:58:27;;;;;;;15.85;11.98;;;11.90;99.90;;;;;;4130790;28;20030;-63
2022/04/23 01:00:28;;;;;;;18.13;12.63;;;11.90;99.90;;;;;;4126712;28;20070;-62
2022/04/23 01:02:28;;;;;;;16.45;12.35;;;11.80;99.90;;;;;;4129116;28;20043;-64
2022/04/23 01:04:30;;;;;;;19.05;13.23;;;11.80;99.90;;;;;;4127442;28;20064;-64
2022/04/23 01:06:34;;;;;;;20.52;13.75;;;11.70;99.90;;;;;;4129905;28;22184;-64
2022/04/23 01:08:34;;;;;;;17.90;13.43;;;11.60;99.90;;;;;;4128233;28;20042;-63
2022/04/23 01:10:35;;;;;;;24.38;13.98;;;11.50;99.90;;;;;;4129856;28;20034;-63
2022/04/23 01:12:36;;;;;;;19.13;13.63;;;11.50;99.90;;;;;;4128342;28;20149;-63
2022/04/23 01:15:05;;;;;;;20.63;13.95;;;11.40;99.90;;;;;;4127068;28;20121;-63
2022/04/23 01:17:06;;;;;;;19.38;13.43;;;11.50;99.90;;;;;;4128043;28;20034;-63
2022/04/23 01:19:06;;;;;;;17.02;13.02;;;11.40;99.90;;;;;;4127205;28;20438;-63
2022/04/23 01:21:10;;;;;;;18.80;13.10;;;11.40;99.90;;;;;;4129594;28;20039;-62
2022/04/23 01:23:11;;;;;;;20.35;14.57;;;11.40;99.90;;;;;;4128475;28;20034;-63
2022/04/23 01:25:13;;;;;;;21.35;14.45;;;11.40;99.90;;;;;;4129473;28;20473;-63
2022/04/23 01:27:15;;;;;;;;;;;11.30;99.90;;;;;;4124881;28;20026;-63
2022/04/23 01:29:15;;;;;;;23.80;16.15;;;11.30;99.90;;;;;;4128258;28;20304;-63
2022/04/23 01:31:16;;;;;;;23.42;15.32;;;11.20;99.90;;;;;;4127848;28;20034;-62
2022/04/23 01:33:17;;;;;;;25.05;15.13;;;11.20;99.90;;;;;;4126821;28;20034;-63
2022/04/23 01:35:17;;;;;;;18.98;13.85;;;11.20;99.90;;;;;;4129418;28;20464;-63
2022/04/23 01:37:18;;;;;;;20.85;14.93;;;11.20;99.90;;;;;;4128291;28;20374;-63
2022/04/23 01:39:18;;;;;;;22.50;15.98;;;11.20;99.90;;;;;;4127709;28;20041;-63
2022/04/23 01:41:19;;;;;;;20.05;15.27;;;11.20;99.90;;;;;;4125391;28;20125;-63
2022/04/23 01:43:20;;;;;;;22.10;14.88;;;11.20;99.90;;;;;;4129402;28;20390;-63
2022/04/23 01:45:20;;;;;;;21.85;15.93;;;11.20;99.90;;;;;;4126452;28;20050;-63
2022/04/23 01:47:21;;;;;;;20.65;15.85;;;11.10;99.90;;;;;;4129512;28;20033;-63
2022/04/23 01:49:22;;;;;;;22.98;16.95;;;11.10;99.90;;;;;;4128230;28;20042;-63
2022/04/23 01:51:22;;;;;;;19.27;14.98;;;11.10;99.90;;;;;;4127357;28;20041;-63
2022/04/23 01:53:25;;;;;;;23.27;16.70;;;11.20;99.90;;;;;;4127478;28;20038;-62
2022/04/23 01:55:25;;;;;;;20.92;15.00;;;11.20;99.90;;;;;;4126202;28;20034;-63
2022/04/23 01:57:26;;;;;;;22.92;16.13;;;11.10;99.90;;;;;;4127570;28;20050;-63
2022/04/23 01:59:27;;;;;;;22.90;17.05;;;11.10;99.90;;;;;;4128336;28;20402;-63
2022/04/23 02:01:27;;;;;;;21.88;16.75;;;11.10;99.90;;;;;;4129044;28;20037;-63
2022/04/23 02:03:29;;;;;;;24.70;17.70;;;11.10;99.90;;;;;;4126733;28;20038;-63
2022/04/23 02:05:30;;;;;;;26.63;18.67;;;11.10;99.90;;;;;;4126980;28;20112;-64
2022/04/23 02:07:35;;;;;;;23.63;16.90;;;11.00;99.90;;;;;;4127958;28;20041;-63
2022/04/23 02:09:35;;;;;;;24.42;17.48;;;11.10;99.90;;;;;;4127440;28;20512;-63
2022/04/23 02:11:36;;;;;;;27.10;18.40;;;11.10;99.90;;;;;;4126164;28;20046;-63
2022/04/23 02:13:37;;;;;;;23.92;17.60;;;11.10;99.90;;;;;;4128427;28;20506;-63
2022/04/23 02:15:40;;;;;;;25.17;17.55;;;11.10;99.90;;;;;;4126273;28;20112;-63
2022/04/23 02:17:41;;;;;;;;;;;11.10;99.90;;;;;;4128505;28;20404;-63
2022/04/23 02:19:42;;;;;;;26.13;18.70;;;11.00;99.90;;;;;;4128515;28;19988;-62
2022/04/23 02:21:44;;;;;;;29.33;19.83;;;11.00;99.90;;;;;;4127716;28;20490;-63
2022/04/23 02:23:45;;;;;;;28.38;19.90;;;11.00;99.90;;;;;;4128400;28;20034;-63
2022/04/23 02:25:45;;;;;;;30.75;20.10;;;11.00;99.90;;;;;;4128157;28;20049;-63
2022/04/23 02:27:48;;;;;;;28.95;20.45;;;11.00;99.90;;;;;;4126084;28;20394;-63
2022/04/23 02:29:50;;;;;;;;;;;11.00;99.90;;;;;;4128155;28;20040;-63
2022/04/23 02:31:51;;;;;;;27.88;19.15;;;11.00;99.90;;;;;;4126113;28;20372;-63
2022/04/23 02:33:51;;;;;;;28.52;20.48;;;11.10;99.90;;;;;;4127369;28;20045;-63
2022/04/23 02:35:52;;;;;;;28.90;20.40;;;11.10;99.90;;;;;;4126619;28;20105;-63
2022/04/23 02:37:56;;;;;;;30.17;21.40;;;11.10;99.90;;;;;;4126835;28;20478;-63
2022/04/23 02:39:57;;;;;;;30.55;22.27;;;11.10;99.90;;;;;;4127183;28;20494;-63
2022/04/23 02:41:57;;;;;;;32.67;21.40;;;11.10;99.90;;;;;;4125531;28;20043;-63
2022/04/23 02:43:59;;;;;;;30.00;21.38;;;11.10;99.90;;;;;;4127892;28;20034;-63
2022/04/23 02:46:00;;;;;;;31.85;21.65;;;11.10;99.90;;;;;;4128671;28;20470;-63
2022/04/23 02:48:00;;;;;;;29.15;21.80;;;11.10;99.90;;;;;;4124896;28;20042;-64
2022/04/23 02:50:01;;;;;;;31.85;22.70;;;11.00;99.90;;;;;;4128074;28;20034;-64
2022/04/23 02:52:01;;;;;;;33.40;22.42;;;11.00;99.90;;;;;;4125901;28;20042;-64
2022/04/23 02:54:02;;;;;;;31.83;21.63;;;11.00;99.90;;;;;;4128298;28;20030;-63
2022/04/23 02:56:04;;;;;;;36.38;22.88;;;11.00;99.90;;;;;;4127259;28;20547;-63
2022/04/23 02:58:08;;;;;;;31.40;22.50;;;10.90;99.90;;;;;;4126412;28;20042;-62
2022/04/23 03:00:10;;;;;;;31.92;22.95;;;10.90;99.90;;;;;;4125400;28;20030;-63
2022/04/23 03:02:10;;;;;;;33.03;22.27;;;10.90;99.90;;;;;;4126836;28;20030;-63
2022/04/23 03:04:11;;;;;;;33.75;23.08;;;10.90;99.90;;;;;;4126111;28;20314;-63
2022/04/23 03:06:14;;;;;;;35.25;21.83;;;10.90;99.90;;;;;;4128278;28;20043;-63
2022/04/23 03:08:15;;;;;;;31.92;22.92;;;10.90;99.90;;;;;;4127364;28;20482;-63
2022/04/23 03:10:18;;;;;;;31.35;23.08;;;10.90;99.90;;;;;;4126999;28;20041;-62
2022/04/23 03:12:18;;;;;;;37.03;24.00;;;10.80;99.90;;;;;;4127687;28;20044;-63
2022/04/23 03:14:20;;;;;;;34.85;23.88;;;10.80;99.90;;;;;;4127122;28;20121;-63
2022/04/23 03:16:21;;;;;;;31.02;21.75;;;10.90;99.90;;;;;;4126210;28;20093;-63
2022/04/23 03:18:22;;;;;;;32.78;21.75;;;10.80;99.90;;;;;;4127287;28;20205;-63
2022/04/23 03:20:23;;;;;;;31.23;21.90;;;10.90;99.90;;;;;;4127324;28;20046;-63
2022/04/23 03:22:24;;;;;;;34.55;21.83;;;10.80;99.90;;;;;;4126683;28;20073;-63
2022/04/23 03:24:24;;;;;;;29.52;21.58;;;10.80;99.90;;;;;;4127629;28;20030;-63
2022/04/23 03:26:25;;;;;;;31.70;21.73;;;10.80;99.90;;;;;;4127792;28;20050;-63
2022/04/23 03:28:25;;;;;;;33.85;21.83;;;10.90;99.90;;;;;;4127161;28;20045;-63
2022/04/23 03:30:27;;;;;;;31.80;22.15;;;10.80;99.90;;;;;;4126002;28;20114;-63
2022/04/23 03:32:28;;;;;;;32.30;21.80;;;10.90;99.90;;;;;;4125991;28;20039;-63
2022/04/23 03:34:29;;;;;;;36.78;24.00;;;10.90;99.90;;;;;;4126691;28;20745;-62
2022/04/23 03:36:29;;;;;;;32.30;22.23;;;10.90;99.90;;;;;;4126603;28;20046;-63
2022/04/23 03:38:31;;;;;;;32.40;22.27;;;10.90;99.90;;;;;;4127415;28;20033;-63
2022/04/23 03:40:31;;;;;;;32.97;22.50;;;10.80;99.90;;;;;;4126074;28;20121;-63
2022/04/23 03:42:32;;;;;;;31.95;21.77;;;10.80;99.90;;;;;;4125138;28;20046;-64
2022/04/23 03:44:33;;;;;;;32.47;21.98;;;10.80;99.90;;;;;;4125139;28;20057;-63
2022/04/23 03:46:33;;;;;;;31.00;22.27;;;10.80;99.90;;;;;;4127796;28;20398;-63
2022/04/23 03:48:34;;;;;;;34.03;23.55;;;10.90;99.90;;;;;;4125306;28;20038;-63
2022/04/23 03:50:35;;;;;;;34.63;23.33;;;10.80;99.90;;;;;;4126340;28;20049;-63
2022/04/23 03:52:36;;;;;;;31.58;21.10;;;10.80;99.90;;;;;;4128467;28;20193;-63
2022/04/23 03:54:36;;;;;;;30.25;22.10;;;10.80;99.90;;;;;;4124574;28;20050;-63
2022/04/23 03:56:37;;;;;;;28.73;20.48;;;10.80;99.90;;;;;;4126060;28;20051;-63
2022/04/23 03:58:38;;;;;;;30.10;20.80;;;10.80;99.90;;;;;;4125020;28;20034;-63
2022/04/23 04:00:39;;;;;;;32.05;21.52;;;10.90;99.90;;;;;;4125854;28;20088;-63
2022/04/23 04:02:40;;;;;;;32.63;21.48;;;10.90;99.90;;;;;;4126219;28;20042;-63
2022/04/23 04:04:42;;;;;;;29.20;19.95;;;10.90;99.90;;;;;;4125068;28;20058;-63
2022/04/23 04:06:43;;;;;;;27.38;19.58;;;10.90;99.90;;;;;;4124989;28;20037;-63
2022/04/23 04:08:44;;;;;;;31.40;21.10;;;10.90;99.90;;;;;;4125743;28;20027;-63
2022/04/23 04:10:45;;;;;;;26.88;19.23;;;10.90;99.90;;;;;;4123446;28;20035;-63
2022/04/23 04:12:47;;;;;;;28.48;21.13;;;10.90;99.90;;;;;;4124464;28;20382;-63
2022/04/23 04:14:47;;;;;;;30.43;21.40;;;10.90;99.90;;;;;;4126030;28;20039;-62
2022/04/23 04:16:49;;;;;;;30.00;21.90;;;10.80;99.90;;;;;;4124625;28;20442;-62
2022/04/23 04:18:49;;;;;;;32.60;21.85;;;10.90;99.90;;;;;;4128380;28;20035;-63
2022/04/23 04:20:53;;;;;;;31.35;22.20;;;10.90;99.90;;;;;;4128100;28;20446;-62
2022/04/23 04:22:54;;;;;;;33.20;21.90;;;10.80;99.90;;;;;;4129549;28;20551;-63
2022/04/23 04:24:55;;;;;;;31.43;22.80;;;10.80;99.90;;;;;;4128418;28;20026;-63
2022/04/23 04:26:57;;;;;;;28.33;20.33;;;10.80;99.90;;;;;;4126863;28;20109;-63
2022/04/23 04:28:57;;;;;;;30.90;22.83;;;10.90;99.90;;;;;;4127527;28;20038;-62
2022/04/23 04:33:18;;;;;;;30.15;21.73;;;10.80;99.90;;;;;;4126582;28;20030;-63
2022/04/23 04:35:19;;;;;;;32.97;22.90;;;10.80;99.90;;;;;;4142848;28;20093;-63
2022/04/23 04:37:20;;;;;;;32.20;20.95;;;10.80;99.90;;;;;;4130260;28;20486;-63
2022/04/23 04:39:21;;;;;;;28.88;21.02;;;10.80;99.90;;;;;;4130384;28;20023;-63
2022/04/23 04:41:22;;;;;;;27.58;21.48;;;10.90;99.90;;;;;;4128213;28;20034;-62
2022/04/23 04:43:22;;;;;;;34.08;23.85;;;10.80;99.90;;;;;;4126896;28;20035;-63
2022/04/23 04:45:23;;;;;;;40.53;22.67;;;10.80;99.90;;;;;;4128733;28;20054;-63
2022/04/23 04:47:23;;;;;;;30.00;22.08;;;10.80;99.90;;;;;;4128817;28;20088;-63
2022/04/23 04:49:24;;;;;;;30.60;21.45;;;10.90;99.90;;;;;;4129063;28;20041;-63
2022/04/23 04:51:25;;;;;;;32.20;23.70;;;10.80;99.90;;;;;;4129852;28;20042;-62
2022/04/23 04:53:26;;;;;;;28.83;20.90;;;10.90;99.90;;;;;;4129710;28;20097;-63
2022/04/23 04:55:27;;;;;;;29.80;20.67;;;10.90;99.90;;;;;;4123914;28;20050;-63
2022/04/23 04:57:27;;;;;;;34.03;22.50;;;10.90;99.90;;;;;;4127778;28;20521;-62
2022/04/23 04:59:29;;;;;;;29.88;21.60;;;10.90;99.90;;;;;;4128148;28;20106;-63
2022/04/23 05:01:30;;;;;;;31.50;21.48;;;10.90;99.90;;;;;;4127580;28;20423;-63
2022/04/23 05:03:30;;;;;;;32.38;23.27;;;10.90;99.90;;;;;;4128752;28;20100;-63
2022/04/23 05:05:31;;;;;;;30.23;21.40;;;10.80;99.90;;;;;;4128552;28;20453;-62
2022/04/23 05:07:32;;;;;;;27.60;19.58;;;10.90;99.90;;;;;;4129361;28;20066;-62
2022/04/23 05:09:32;;;;;;;26.02;18.92;;;10.90;99.90;;;;;;4128367;28;20042;-64
2022/04/23 05:11:33;;;;;;;25.15;18.73;;;11.00;99.90;;;;;;4128113;28;20038;-64
2022/04/23 05:13:33;;;;;;;27.00;18.55;;;10.90;99.90;;;;;;4127399;28;20057;-63
2022/04/23 05:15:34;;;;;;;24.90;19.08;;;10.90;99.90;;;;;;4127689;28;20034;-63
2022/04/23 05:17:38;;;;;;;30.65;20.83;;;10.90;99.90;;;;;;4127060;28;20117;-63
2022/04/23 05:19:38;;;;;;;31.60;22.02;;;10.90;99.90;;;;;;4128648;28;20049;-62
2022/04/23 05:21:39;;;;;;;32.55;22.38;;;10.90;99.90;;;;;;4129355;28;20413;-63
2022/04/23 05:23:40;;;;;;;29.80;21.70;;;10.90;99.90;;;;;;4126710;28;20101;-64
2022/04/23 05:25:40;;;;;;;29.50;20.75;;;10.90;99.90;;;;;;4131726;28;20034;-63
2022/04/23 05:27:41;;;;;;;28.95;21.85;;;11.00;99.90;;;;;;4127743;28;20073;-63
2022/04/23 05:29:42;;;;;;;32.08;22.05;;;11.00;99.90;;;;;;4127018;28;20042;-62
2022/04/23 05:31:42;;;;;;;34.15;22.05;;;11.10;99.90;;;;;;4124907;28;20062;-63
2022/04/23 05:33:43;;;;;;;29.98;22.35;;;11.20;99.90;;;;;;4125305;28;20042;-63
2022/04/23 05:35:43;;;;;;;28.88;21.45;;;11.10;99.90;;;;;;4125786;28;20177;-63
2022/04/23 05:37:44;;;;;;;32.35;21.38;;;11.10;99.90;;;;;;4128131;28;20117;-63
2022/04/23 05:39:44;;;;;;;31.73;21.33;;;11.20;99.90;;;;;;4129608;28;20407;-63
2022/04/23 05:41:45;;;;;;;30.48;22.10;;;11.20;99.90;;;;;;4126613;28;20037;-64
2022/04/23 05:43:45;;;;;;;34.35;23.60;;;11.20;99.90;;;;;;4127280;28;20038;-63
2022/04/23 05:45:46;;;;;;;34.95;22.55;;;11.30;99.90;;;;;;4129202;28;20038;-63
2022/04/23 05:47:47;;;;;;;30.30;20.92;;;11.30;99.90;;;;;;4127693;28;20034;-63
2022/04/23 05:49:48;;;;;;;32.53;23.45;;;11.40;99.90;;;;;;4129586;28;20090;-63
2022/04/23 05:51:48;;;;;;;29.90;21.08;;;11.40;99.90;;;;;;4126172;28;20043;-63
2022/04/23 05:53:49;;;;;;;30.77;22.20;;;11.50;99.90;;;;;;4131119;28;20129;-63
2022/04/23 05:55:50;;;;;;;27.27;21.23;;;11.50;99.90;;;;;;4125715;28;20042;-63
2022/04/23 05:57:51;;;;;;;28.23;20.67;;;11.50;99.90;;;;;;4129457;28;20401;-63
2022/04/23 05:59:51;;;;;;;26.45;20.75;;;11.60;99.90;;;;;;4127645;28;20496;-63
2022/04/23 06:01:52;;;;;;;30.27;21.00;;;11.60;99.90;;;;;;4127436;28;20022;-63
2022/04/23 06:03:52;;;;;;;27.92;20.30;;;11.70;99.90;;;;;;4127990;28;20050;-63
2022/04/23 06:05:53;;;;;;;33.67;22.73;;;11.80;99.90;;;;;;4128966;28;20103;-63
2022/04/23 06:07:53;;;;;;;31.92;21.77;;;11.80;99.90;;;;;;4126559;28;20035;-63
2022/04/23 06:09:54;;;;;;;31.55;23.40;;;11.90;99.90;;;;;;4126923;28;20026;-63
2022/04/23 06:11:55;;;;;;;29.95;22.27;;;11.90;99.90;;;;;;4123434;28;20474;-63
2022/04/23 06:13:56;;;;;;;32.20;22.15;;;11.90;99.90;;;;;;4125047;28;20190;-63
2022/04/23 06:15:57;;;;;;;28.58;21.70;;;12.00;99.90;;;;;;4124665;28;20445;-63
2022/04/23 06:17:57;;;;;;;32.58;22.60;;;12.10;99.90;;;;;;4126592;28;20096;-63
2022/04/23 06:20:00;;;;;;;27.17;20.80;;;12.10;99.90;;;;;;4124575;28;20121;-63
2022/04/23 06:22:00;;;;;;;31.73;24.10;;;12.20;99.90;;;;;;4126324;28;20035;-63
2022/04/23 06:24:01;;;;;;;26.83;21.50;;;12.20;99.90;;;;;;4127214;28;20957;-63
2022/04/23 06:26:02;;;;;;;28.85;21.00;;;12.30;99.90;;;;;;4127526;28;20811;-63
2022/04/23 06:28:02;;;;;;;34.83;21.42;;;12.30;99.90;;;;;;4127768;28;20126;-63
2022/04/23 06:30:05;;;;;;;28.17;20.65;;;12.50;99.90;;;;;;4125678;28;20480;-64
2022/04/23 06:32:06;;;;;;;30.15;21.10;;;12.50;99.90;;;;;;4129623;28;20490;-63
2022/04/23 06:34:06;;;;;;;28.40;21.67;;;12.60;99.90;;;;;;4128342;28;20047;-63
2022/04/23 06:36:10;;;;;;;34.90;23.27;;;12.70;99.90;;;;;;4127141;28;20121;-64
2022/04/23 06:38:11;;;;;;;27.95;21.38;;;12.70;99.90;;;;;;4125873;28;20037;-63
2022/04/23 06:40:13;;;;;;;30.67;20.60;;;12.80;99.90;;;;;;4130066;28;20050;-65
2022/04/23 06:42:14;;;;;;;27.17;19.10;;;12.90;99.90;;;;;;4135214;28;20046;-63
2022/04/23 06:44:15;;;;;;;26.10;19.75;;;13.10;99.90;;;;;;4128267;28;20093;-63
2022/04/23 06:46:15;;;;;;;27.02;18.70;;;13.30;99.90;;;;;;4124886;28;20030;-63
2022/04/23 06:48:16;;;;;;;25.88;19.58;;;13.50;99.90;;;;;;4127942;28;20030;-64
2022/04/23 06:50:16;;;;;;;24.02;18.83;;;13.80;99.90;;;;;;4126367;28;20078;-63
2022/04/23 06:52:17;;;;;;;24.73;18.95;;;13.90;99.90;;;;;;4125439;28;20049;-63
2022/04/23 06:54:17;;;;;;;26.52;18.48;;;14.00;99.90;;;;;;4132438;28;20053;-63
2022/04/23 06:56:18;;;;;;;25.42;18.92;;;14.10;99.90;;;;;;4124610;28;20045;-64
2022/04/23 06:58:18;;;;;;;19.85;15.98;;;14.30;99.90;;;;;;4126873;28;20101;-63
2022/04/23 07:00:22;;;;;;;21.48;16.70;;;14.60;99.90;;;;;;4125925;28;20117;-63
2022/04/23 07:02:22;;;;;;;26.13;17.73;;;14.80;99.90;;;;;;4126336;28;20037;-63
2022/04/23 07:04:25;;;;;;;24.17;17.52;;;15.00;99.90;;;;;;4127850;28;20046;-63
2022/04/23 07:06:25;;;;;;;;;;;15.00;99.90;;;;;;4125539;28;20486;-64
2022/04/23 07:08:26;;;;;;;22.08;16.55;;;15.30;99.90;;;;;;4126416;28;19910;-63
2022/04/23 07:10:28;;;;;;;23.70;17.38;;;15.40;99.90;;;;;;4129947;28;20039;-63
2022/04/23 07:12:29;;;;;;;19.20;15.98;;;15.50;99.90;;;;;;4127988;28;20837;-63
2022/04/23 07:14:29;;;;;;;22.40;16.67;;;15.40;99.90;;;;;;4125335;28;20104;-64
2022/04/23 07:16:30;;;;;;;20.77;17.52;;;15.40;99.90;;;;;;4125443;28;20038;-63
2022/04/23 07:18:31;;;;;;;19.80;16.70;;;15.30;99.90;;;;;;4131605;28;20038;-63
2022/04/23 07:20:32;;;;;;;21.02;17.27;;;15.30;99.90;;;;;;4125788;28;20066;-64
2022/04/23 07:22:33;;;;;;;20.58;15.60;;;15.30;99.90;;;;;;4126778;28;20486;-63
2022/04/23 07:24:34;;;;;;;23.27;16.90;;;15.50;99.90;;;;;;4124803;28;20039;-63
2022/04/23 07:26:36;;;;;;;20.55;15.75;;;15.60;99.90;;;;;;4129660;28;20042;-64
2022/04/23 07:28:37;;;;;;;21.05;16.92;;;15.70;99.90;;;;;;4128023;28;20035;-64
2022/04/23 07:30:38;;;;;;;18.83;14.88;;;15.60;99.90;;;;;;4125341;28;20486;-64
2022/04/23 07:32:38;;;;;;;19.00;15.25;;;15.80;99.90;;;;;;4127418;28;20044;-64
2022/04/23 07:39:18;;;;;;;22.33;16.63;;;15.90;99.90;;;;;;4139783;28;20034;-63
2022/04/23 07:41:20;;;;;;;22.45;17.45;;;16.00;99.90;;;;;;4136371;28;20177;-63
2022/04/23 07:43:20;;;;;;;22.03;15.87;;;16.00;99.90;;;;;;4127090;28;20022;-63
2022/04/23 07:45:21;;;;;;;23.27;15.85;;;16.10;99.90;;;;;;4127832;28;21429;-63
2022/04/23 07:47:22;;;;;;;17.00;13.43;;;16.30;99.90;;;;;;4126697;28;20023;-64
2022/04/23 07:49:22;;;;;;;22.40;16.23;;;16.50;99.90;;;;;;4126004;28;20033;-63
2022/04/23 07:51:25;;;;;;;20.02;15.25;;;16.50;99.90;;;;;;4127721;28;20154;-63
2022/04/23 07:53:25;;;;;;;18.55;14.20;;;16.60;99.90;;;;;;4120162;28;20034;-63
2022/04/23 07:55:29;;;;;;;20.83;15.77;;;16.80;99.90;;;;;;4128514;28;20045;-63
2022/04/23 07:57:30;;;;;;;21.50;16.40;;;16.70;99.90;;;;;;4131088;28;20621;-63
2022/04/23 07:59:30;;;;;;;18.00;14.80;;;16.60;99.90;;;;;;4127632;28;20078;-63
2022/04/23 08:01:31;;;;;;;21.52;16.15;;;16.70;99.90;;;;;;4128812;28;20046;-63
2022/04/23 08:03:32;;;;;;;20.02;15.43;;;16.70;99.90;;;;;;4129111;28;20047;-63
2022/04/23 08:05:32;;;;;;;20.15;16.00;;;16.60;99.90;;;;;;4130247;28;20047;-63
2022/04/23 08:07:33;;;;;;;22.55;17.17;;;16.60;99.90;;;;;;4131497;28;20077;-63
2022/04/23 08:09:37;;;;;;;22.50;16.55;;;16.50;99.90;;;;;;4128854;28;20415;-63
2022/04/23 08:11:38;;;;;;;20.08;14.77;;;16.40;99.90;;;;;;4129357;28;20034;-63
2022/04/23 08:13:38;;;;;;;19.60;15.25;;;16.40;99.90;;;;;;4129820;28;20054;-65
2022/04/23 08:15:39;;;;;;;20.85;16.38;;;16.50;99.90;;;;;;4129022;28;20030;-64
2022/04/23 08:17:40;;;;;;;22.50;16.65;;;16.70;99.90;;;;;;4129302;28;20044;-64
2022/04/23 08:19:41;;;;;;;22.63;16.23;;;16.50;99.90;;;;;;4129652;28;20050;-63
2022/04/23 08:21:41;;;;;;;19.75;15.82;;;16.60;99.90;;;;;;4129326;28;20050;-63
2022/04/23 08:23:42;;;;;;;19.95;15.07;;;16.60;99.90;;;;;;4129428;28;20117;-64
2022/04/23 08:25:45;;;;;;;25.13;16.92;;;16.70;99.90;;;;;;4128617;28;20038;-64
2022/04/23 08:27:54;;;;;;;18.42;14.07;;;16.60;99.90;;;;;;4131140;28;20046;-63
2022/04/23 08:32:21;;;;;;;18.88;14.45;;;16.90;99.90;;;;;;4129450;28;20046;-63
2022/04/23 08:34:22;;;;;;;21.80;16.88;;;17.00;99.90;;;;;;4128371;28;20402;-63
2022/04/23 08:36:22;;;;;;;21.20;16.25;;;16.80;99.90;;;;;;4128230;28;20121;-63
2022/04/23 08:38:23;;;;;;;16.63;13.77;;;16.90;99.90;;;;;;4131392;28;20026;-63
2022/04/23 08:40:24;;;;;;;19.73;15.77;;;17.10;99.90;;;;;;4128475;28;20034;-63
2022/04/23 08:42:26;;;;;;;21.45;15.13;;;17.10;99.50;;;;;;4129349;28;20038;-63
2022/04/23 08:44:26;;;;;;;24.55;15.90;;;17.10;99.80;;;;;;4128827;28;20035;-63
2022/04/23 08:46:27;;;;;;;22.08;16.67;;;17.00;99.50;;;;;;4129720;28;20026;-63
2022/04/23 08:48:36;;;;;;;20.95;16.92;;;17.10;99.10;;;;;;4129167;28;20042;-63
2022/04/23 08:50:37;;;;;;;19.45;15.30;;;17.00;99.20;;;;;;4130326;28;20045;-63
2022/04/23 08:52:42;;;;;;;22.88;14.93;;;17.20;99.30;;;;;;4127671;28;20034;-63
2022/04/23 08:54:44;;;;;;;24.80;18.80;;;17.30;99.00;;;;;;4128174;28;20529;-63
2022/04/23 08:56:46;;;;;;;23.48;17.90;;;17.20;99.20;;;;;;4127417;28;20066;-63
2022/04/23 08:58:47;;;;;;;22.27;17.58;;;17.10;99.90;;;;;;4128249;28;20049;-63
2022/04/23 09:00:48;;;;;;;22.83;16.60;;;17.30;99.30;;;;;;4125808;28;20504;-63
2022/04/23 09:02:49;;;;;;;23.80;17.67;;;17.40;99.50;;;;;;4130477;28;20045;-63
2022/04/23 09:04:50;;;;;;;22.42;16.48;;;17.50;99.10;;;;;;4126060;28;20050;-63
2022/04/23 09:06:51;;;;;;;22.23;17.42;;;17.60;98.80;;;;;;4126336;28;20057;-63
2022/04/23 09:09:17;;;;;;;22.02;17.35;;;17.50;98.30;;;;;;4127652;28;20043;-63
2022/04/23 09:11:34;;;;;;;22.13;17.35;;;17.50;98.80;;;;;;4130792;28;20096;-63
2022/04/23 09:13:34;;;;;;;26.95;18.42;;;17.40;98.90;;;;;;4128027;28;20413;-63
2022/04/23 09:24:55;;;;;;;24.30;18.33;;;17.70;98.30;;;;;;4124623;28;20042;-63
2022/04/23 09:27:05;;;;;;;23.75;17.85;;;17.70;97.90;;;;;;4128078;28;20050;-64
2022/04/23 09:29:18;;;;;;;20.70;17.05;;;17.70;97.60;;;;;;4129271;28;20046;-65
2022/04/23 09:31:18;;;;;;;;;;;17.60;97.60;;;;;;4129699;28;20065;-64
2022/04/23 09:33:23;;;;;;;27.77;19.23;;;17.80;98.20;;;;;;4128672;28;19913;-65
2022/04/23 09:35:25;;;;;;;22.20;17.35;;;17.90;98.00;;;;;;4130173;28;20121;-64
2022/04/23 09:39:48;;;;;;;26.73;18.60;;;17.80;97.60;;;;;;4125652;28;20069;-64
2022/04/23 09:41:48;;;;;;;20.38;16.48;;;18.00;97.70;;;;;;4127594;28;20282;-63
2022/04/23 09:44:07;;;;;;;25.42;18.42;;;18.10;97.70;;;;;;4127449;28;20030;-63
2022/04/23 09:46:09;;;;;;;22.48;16.73;;;17.80;97.10;;;;;;4127249;28;20038;-64
2022/04/23 09:48:12;;;;;;;22.55;16.58;;;17.80;98.30;;;;;;4127934;28;20046;-64
2022/04/23 09:50:16;;;;;;;29.58;18.92;;;17.90;97.90;;;;;;4128087;28;20467;-64
2022/04/23 09:52:17;;;;;;;24.52;18.67;;;18.10;98.30;;;;;;4127983;28;20053;-64
2022/04/23 09:54:17;;;;;;;25.77;17.85;;;18.20;98.00;;;;;;4128064;28;20049;-63
2022/04/23 09:56:19;;;;;;;22.65;17.73;;;18.20;97.00;;;;;;4128775;28;20042;-64
2022/04/23 09:58:20;;;;;;;25.53;19.20;;;18.00;97.50;;;;;;4127845;28;20430;-64
2022/04/23 10:00:21;;;;;;;27.13;18.55;;;17.70;97.10;;;;;;4129373;28;20500;-64
2022/04/23 10:02:23;;;;;;;21.08;16.02;;;17.80;97.40;;;;;;4129678;28;20030;-64
2022/04/23 10:04:25;;;;;;;24.58;18.27;;;18.00;97.90;;;;;;4127801;28;20470;-63
2022/04/23 10:06:26;;;;;;;25.25;17.88;;;18.00;98.00;;;;;;4127244;28;20486;-63
2022/04/23 10:08:33;;;;;;;24.23;19.33;;;18.10;95.90;;;;;;4128365;28;20041;-63
2022/04/23 10:10:36;;;;;;;22.58;17.92;;;18.00;97.20;;;;;;4125309;28;20398;-64
2022/04/23 10:12:38;;;;;;;22.90;17.45;;;18.00;96.60;;;;;;4128216;28;20049;-65
2022/04/23 10:14:46;;;;;;;21.45;16.50;;;18.10;96.40;;;;;;4127268;28;20121;-64
2022/04/23 10:16:49;;;;;;;21.92;16.27;;;18.20;96.70;;;;;;4127807;28;20064;-64
2022/04/23 10:18:49;;;;;;;25.33;17.58;;;18.30;96.60;;;;;;4127382;28;20359;-63
2022/04/23 10:21:02;;;;;;;26.67;20.08;;;18.30;95.80;;;;;;4126993;28;20040;-63
2022/04/23 10:23:19;;;;;;;;;;;18.40;97.00;;;;;;4127700;28;20040;-64
2022/04/23 10:25:33;;;;;;;29.23;20.83;;;18.50;97.20;;;;;;4126199;28;19933;-64
2022/04/23 10:27:34;;;;;;;30.55;21.50;;;18.40;96.80;;;;;;4123133;28;20085;-64
2022/04/23 10:29:35;;;;;;;28.05;19.90;;;18.30;96.40;;;;;;4127669;28;20039;-64
2022/04/23 10:31:37;;;;;;;26.10;20.23;;;18.40;96.80;;;;;;4124821;28;20034;-65
2022/04/23 10:33:43;;;;;;;24.83;20.08;;;18.70;97.00;;;;;;4127152;28;20034;-65
2022/04/23 10:35:44;;;;;;;26.80;19.58;;;18.70;96.80;;;;;;4128463;28;20038;-65
2022/04/23 10:37:49;;;;;;;27.88;20.88;;;18.70;95.70;;;;;;4127624;28;20114;-64
2022/04/23 10:39:52;;;;;;;27.05;20.10;;;18.80;96.50;;;;;;4123218;28;20494;-65